createdAt,value
2023-01-15T00:03:59.213Z,5.82
2023-01-15T00:09:01.637Z,4.72
2023-01-15T00:14:07.809Z,6.65
2023-01-15T00:19:12.207Z,5.20
2023-01-15T00:24:33.510Z,5.82
2023-01-15T00:29:40.728Z,4.25
2023-01-15T00:34:43.068Z,4.38
2023-01-15T00:39:46.455Z,5.47
2023-01-15T00:44:48.999Z,6.03
2023-01-15T00:49:51.783Z,6.78
2023-01-15T00:54:54.372Z,5.27
2023-01-15T00:59:56.775Z,4.32
2023-01-15T01:04:59.221Z,5.05
2023-01-15T01:10:01.622Z,8.07
2023-01-15T01:15:04.509Z,5.38
2023-01-15T01:20:07.447Z,6.47
2023-01-15T01:25:10.377Z,5.20
2023-01-15T01:30:13.665Z,4.63
2023-01-15T01:35:17.121Z,3.38
2023-01-15T01:40:19.780Z,3.67
2023-01-15T01:45:26.741Z,5.00
2023-01-15T01:50:30.202Z,4.28
2023-01-15T01:55:35.441Z,4.80
2023-01-15T02:00:39.585Z,3.92
2023-01-15T02:05:47.830Z,4.00
2023-01-15T02:10:53.432Z,4.30
2023-01-15T02:16:08.871Z,6.45
2023-01-15T02:21:40.167Z,6.55
2023-01-15T02:27:07.831Z,4.47
2023-01-15T02:32:16.501Z,5.72
2023-01-15T02:37:24.986Z,5.32
2023-01-15T02:42:30.561Z,5.53
2023-01-15T02:47:35.506Z,6.05
2023-01-15T02:52:47.832Z,4.47
2023-01-15T02:57:57.086Z,3.60
2023-01-15T03:03:10.445Z,5.30
2023-01-15T03:13:38.182Z,3.83
2023-01-15T03:19:07.533Z,3.10
2023-01-15T03:24:13.411Z,3.85
2023-01-15T03:29:17.133Z,4.97
2023-01-15T03:34:19.931Z,4.50
2023-01-15T03:39:23.626Z,6.20
2023-01-15T03:44:41.115Z,5.53
2023-01-15T03:49:50.811Z,5.35
2023-01-15T03:55:16.848Z,4.65
2023-01-15T04:00:34.528Z,3.05
2023-01-15T04:05:37.902Z,4.32
2023-01-15T04:10:55.730Z,2.83
2023-01-15T04:16:02.390Z,5.80
2023-01-15T04:21:05.619Z,5.10
2023-01-15T04:26:10.151Z,3.28
2023-01-15T04:31:12.515Z,4.43
2023-01-15T04:36:15.106Z,3.85
2023-01-15T04:41:36.108Z,4.05
2023-01-15T04:46:44.120Z,3.58
2023-01-15T04:51:46.568Z,3.53
2023-01-15T04:56:51.734Z,3.03
2023-01-15T05:02:03.729Z,2.20
2023-01-15T05:07:08.970Z,2.88
2023-01-15T05:12:11.501Z,2.38
2023-01-15T05:17:15.023Z,3.78
2023-01-15T05:22:17.497Z,2.25
2023-01-15T05:27:19.837Z,3.28
2023-01-15T05:32:22.275Z,2.60
2023-01-15T05:37:24.562Z,3.05
2023-01-15T05:42:30.821Z,3.72
2023-01-15T05:47:33.293Z,3.88
2023-01-15T05:52:38.818Z,3.28
2023-01-15T05:57:41.156Z,3.03
2023-01-15T06:02:43.509Z,4.82
2023-01-15T06:07:50.179Z,3.40
2023-01-15T06:12:52.742Z,2.70
2023-01-15T06:17:55.135Z,4.95
2023-01-15T06:22:59.541Z,3.88
2023-01-15T06:28:01.920Z,2.70
2023-01-15T06:33:04.971Z,1.85
2023-01-15T06:38:07.320Z,2.80
2023-01-15T06:43:31.238Z,3.00
2023-01-15T06:48:33.867Z,3.05
2023-01-15T06:53:36.269Z,2.28
2023-01-15T06:58:38.663Z,3.22
2023-01-15T07:03:45.895Z,2.92
2023-01-15T07:08:48.357Z,4.40
2023-01-15T07:14:05.987Z,5.68
2023-01-15T07:19:09.108Z,6.22
2023-01-15T07:24:12.362Z,4.97
2023-01-15T07:29:15.160Z,7.88
2023-01-15T07:34:19.690Z,11.87
2023-01-15T07:39:22.249Z,12.82
2023-01-15T07:44:43.087Z,8.98
2023-01-15T07:49:46.962Z,8.27
2023-01-15T07:54:50.450Z,7.25
2023-01-15T07:59:52.924Z,9.48
2023-01-15T08:04:55.230Z,6.20
2023-01-15T08:09:57.546Z,3.20
2023-01-15T08:15:14.921Z,15.82
2023-01-15T08:20:20.245Z,4.20
2023-01-15T08:25:25.302Z,16.85
2023-01-15T08:30:28.793Z,16.75
2023-01-15T08:40:56.557Z,4.72
2023-01-15T08:46:01.564Z,3.03
2023-01-15T08:51:05.793Z,5.00
2023-01-15T08:56:19.104Z,3.83
2023-01-15T09:01:21.610Z,4.57
2023-01-15T09:06:24.108Z,3.17
2023-01-15T09:11:26.875Z,1.80
2023-01-15T09:16:31.917Z,1.17
2023-01-15T09:21:34.944Z,1.55
2023-01-15T09:26:38.780Z,3.63
2023-01-15T09:31:41.514Z,1.70
2023-01-15T09:36:46.772Z,5.35
2023-01-15T09:42:13.486Z,2.42
2023-01-15T09:47:34.302Z,85.45
2023-01-15T09:52:50.280Z,54.58
2023-01-15T09:57:55.446Z,15.32
2023-01-15T10:03:29.973Z,11.90
2023-01-15T10:08:43.850Z,11.55
2023-01-15T10:18:56.076Z,12.70
2023-01-15T10:24:19.397Z,22.30
2023-01-15T10:29:45.960Z,51.67
2023-01-15T10:35:01.824Z,34.63
2023-01-15T10:40:43.480Z,20.48
2023-01-15T10:45:56.779Z,22.27
2023-01-15T10:51:02.440Z,28.52
2023-01-15T10:56:13.958Z,39.10
2023-01-15T11:01:19.874Z,34.72
2023-01-15T11:06:23.907Z,19.27
2023-01-15T11:11:54.011Z,22.85
2023-01-15T11:17:08.307Z,23.00
2023-01-15T11:22:10.844Z,16.83
2023-01-15T11:27:33.483Z,25.20
2023-01-15T11:32:37.897Z,38.97
2023-01-15T11:37:41.427Z,35.63
2023-01-15T11:43:06.547Z,33.40
2023-01-15T11:48:39.791Z,41.17
2023-01-15T11:53:49.379Z,48.50
2023-01-15T11:58:56.833Z,47.92
2023-01-15T12:04:24.907Z,39.30
2023-01-15T12:09:57.917Z,34.75
2023-01-15T12:15:35.191Z,41.88
2023-01-15T12:20:56.766Z,52.83
2023-01-15T12:26:28.096Z,37.55
2023-01-15T12:31:44.394Z,69.57
2023-01-15T12:37:06.831Z,122.60
2023-01-15T12:42:30.447Z,85.22
2023-01-15T12:47:44.275Z,39.63
2023-01-15T12:52:48.821Z,30.40
2023-01-15T12:57:55.335Z,30.85
2023-01-15T13:03:15.552Z,39.25
2023-01-15T13:08:22.991Z,30.83
2023-01-15T13:13:33.468Z,25.80
2023-01-15T13:18:35.841Z,23.00
2023-01-15T13:23:52.159Z,64.35
2023-01-15T13:29:04.274Z,33.25
2023-01-15T13:34:33.116Z,26.45
2023-01-15T13:39:42.090Z,26.85
2023-01-15T13:44:50.493Z,21.08
2023-01-15T13:49:56.909Z,17.60
2023-01-15T13:55:20.560Z,21.42
2023-01-15T14:00:35.040Z,17.05
2023-01-15T14:05:55.526Z,15.90
2023-01-15T14:10:58.152Z,21.10
2023-01-15T14:16:18.134Z,17.40
2023-01-15T14:21:38.154Z,18.60
2023-01-15T14:26:54.292Z,14.32
2023-01-15T14:32:26.012Z,15.10
2023-01-15T14:37:51.511Z,18.00
2023-01-15T14:43:01.716Z,21.33
2023-01-15T14:48:24.027Z,29.15
2023-01-15T14:53:38.886Z,24.13
2023-01-15T14:58:55.650Z,20.10
2023-01-15T15:04:36.905Z,24.33
2023-01-15T15:09:46.242Z,34.58
2023-01-15T15:14:59.633Z,33.00
2023-01-15T15:20:23.152Z,35.30
2023-01-15T15:25:36.525Z,51.83
2023-01-15T15:30:45.431Z,44.25
2023-01-15T15:35:53.453Z,49.08
2023-01-15T15:41:02.096Z,60.08
2023-01-15T15:46:39.631Z,59.25
2023-01-15T15:51:53.396Z,57.95
2023-01-15T16:02:21.622Z,43.53
2023-01-15T16:07:29.817Z,39.53
2023-01-15T16:12:34.773Z,35.58
2023-01-15T16:17:39.581Z,27.75
2023-01-15T16:22:46.625Z,29.10
2023-01-15T16:27:49.488Z,27.75
2023-01-15T16:32:53.552Z,40.83
2023-01-15T16:37:58.878Z,28.98
2023-01-15T16:43:04.929Z,33.58
2023-01-15T16:48:07.477Z,40.60
2023-01-15T16:53:36.049Z,36.42
2023-01-15T16:58:41.599Z,29.52
2023-01-15T17:03:43.971Z,56.67
2023-01-15T17:08:49.748Z,58.88
2023-01-15T17:13:52.584Z,61.90
2023-01-15T17:18:55.568Z,97.00
2023-01-15T17:24:00.061Z,71.97
2023-01-15T17:29:02.579Z,105.00
2023-01-15T17:34:05.160Z,82.97
2023-01-15T17:39:12.991Z,51.85
2023-01-15T17:44:17.001Z,39.83
2023-01-15T17:49:19.498Z,27.58
2023-01-15T17:54:41.945Z,27.20
2023-01-15T18:00:04.231Z,24.08
2023-01-15T18:05:26.331Z,24.27
2023-01-15T18:10:28.760Z,47.65
2023-01-15T18:15:31.264Z,81.05
2023-01-15T18:20:34.003Z,50.85
2023-01-15T18:25:36.634Z,56.97
2023-01-15T18:30:39.067Z,33.95
2023-01-15T18:35:41.459Z,25.25
2023-01-15T18:40:43.923Z,43.25
2023-01-15T18:46:13.342Z,40.55
2023-01-15T18:51:15.748Z,35.75
2023-01-15T18:56:38.024Z,44.17
2023-01-15T19:01:41.692Z,40.97
2023-01-15T19:06:44.440Z,42.35
2023-01-15T19:11:47.794Z,42.22
2023-01-15T19:17:09.154Z,91.57
2023-01-15T19:22:30.546Z,53.47
2023-01-15T19:27:32.964Z,55.10
2023-01-15T19:32:35.710Z,26.77
2023-01-15T19:37:39.950Z,20.17
2023-01-15T19:43:01.225Z,31.08
2023-01-15T19:48:22.402Z,26.63
2023-01-15T19:53:25.184Z,25.20
2023-01-15T19:58:27.698Z,22.92
2023-01-15T20:03:31.843Z,20.23
2023-01-15T20:08:34.736Z,23.08
2023-01-15T20:13:52.213Z,19.73
2023-01-15T20:18:58.264Z,14.93
2023-01-15T20:24:03.473Z,44.10
2023-01-15T20:29:06.082Z,21.02
2023-01-15T20:34:08.433Z,14.48
2023-01-15T20:39:10.967Z,10.80
2023-01-15T20:44:35.111Z,9.07
2023-01-15T20:49:40.044Z,8.05
2023-01-15T20:54:44.958Z,9.88
2023-01-15T20:59:47.919Z,13.73
2023-01-15T21:04:50.633Z,11.43
2023-01-15T21:09:53.224Z,15.10
2023-01-15T21:14:55.543Z,13.95
2023-01-15T21:19:57.914Z,16.48
2023-01-15T21:25:00.284Z,63.58
2023-01-15T21:30:04.979Z,59.75
2023-01-15T21:35:07.844Z,76.80
2023-01-15T21:40:10.954Z,38.80
2023-01-15T21:45:13.374Z,49.47
2023-01-15T21:50:17.786Z,53.65
2023-01-15T21:55:20.273Z,61.70
2023-01-15T22:00:22.757Z,55.75
2023-01-15T22:05:25.229Z,39.45
2023-01-15T22:10:27.523Z,39.95
2023-01-15T22:15:29.933Z,58.08
2023-01-15T22:20:32.725Z,58.00
2023-01-15T22:25:35.422Z,47.80
2023-01-15T22:30:38.508Z,45.58
2023-01-15T22:35:40.892Z,41.67
2023-01-15T22:40:43.309Z,32.33
2023-01-15T22:45:45.595Z,35.13
2023-01-15T22:50:48.205Z,26.92
2023-01-15T22:55:57.943Z,42.00
2023-01-15T23:01:00.593Z,21.60
2023-01-15T23:06:10.781Z,17.10
2023-01-15T23:11:15.317Z,13.00
2023-01-15T23:16:17.843Z,15.77
2023-01-15T23:21:22.730Z,12.10
2023-01-15T23:26:27.323Z,11.48
2023-01-15T23:31:29.978Z,10.95
2023-01-15T23:36:33.646Z,10.80
2023-01-15T23:47:16.790Z,11.32
2023-01-15T23:52:19.062Z,14.15
2023-01-15T23:57:21.741Z,15.65
